createdAt,value
2022-09-25T00:01:01.431Z,59.75
2022-09-25T00:03:29.988Z,59.72
2022-09-25T00:06:09.797Z,60.01
2022-09-25T00:08:37.312Z,59.82
2022-09-25T00:11:10.294Z,60.43
2022-09-25T00:13:38.569Z,60.46
2022-09-25T00:16:05.491Z,60.29
2022-09-25T00:18:51.589Z,59.92
2022-09-25T00:21:18.871Z,59.77
2022-09-25T00:23:48.068Z,60.09
2022-09-25T00:26:17.129Z,59.88
2022-09-25T00:28:44.554Z,59.85
2022-09-25T00:31:12.882Z,59.86
2022-09-25T00:33:39.908Z,60.10
2022-09-25T00:36:09.969Z,60.08
2022-09-25T00:38:38.691Z,59.78
2022-09-25T00:41:07.948Z,60.08
2022-09-25T00:44:02.567Z,60.36
2022-09-25T00:46:38.650Z,60.63
2022-09-25T00:49:12.770Z,60.70
2022-09-25T00:52:06.613Z,60.22
2022-09-25T00:54:37.297Z,60.15
2022-09-25T00:57:13.228Z,60.33
2022-09-25T00:59:44.357Z,59.99
2022-09-25T01:02:17.367Z,59.85
2022-09-25T01:04:46.568Z,59.67
2022-09-25T01:07:15.048Z,59.76
2022-09-25T01:09:42.337Z,59.47
2022-09-25T01:12:09.750Z,59.46
2022-09-25T01:14:38.639Z,59.05
2022-09-25T01:17:17.037Z,59.42
2022-09-25T01:20:04.268Z,59.72
2022-09-25T01:22:55.412Z,59.41
2022-09-25T01:25:47.029Z,59.34
2022-09-25T01:28:41.997Z,59.40
2022-09-25T01:31:19.716Z,59.54
2022-09-25T01:33:51.328Z,59.23
2022-09-25T01:36:53.508Z,59.77
2022-09-25T01:39:27.370Z,59.70
2022-09-25T01:42:21.929Z,59.63
2022-09-25T01:45:03.989Z,59.71
2022-09-25T01:47:39.530Z,59.92
2022-09-25T01:50:13.450Z,59.84
2022-09-25T01:52:49.949Z,59.80
2022-09-25T01:55:45.248Z,59.61
2022-09-25T01:58:22.481Z,59.81
2022-09-25T02:00:56.329Z,59.85
2022-09-25T02:03:50.888Z,59.53
2022-09-25T02:06:21.209Z,59.50
2022-09-25T02:09:17.309Z,59.32
2022-09-25T02:11:50.309Z,59.20
2022-09-25T02:14:43.689Z,59.32
2022-09-25T02:17:34.876Z,59.69
2022-09-25T02:20:20.469Z,59.64
2022-09-25T02:22:51.850Z,59.60
2022-09-25T02:25:41.189Z,60.91
2022-09-25T02:28:08.557Z,60.64
2022-09-25T02:30:35.723Z,60.77
2022-09-25T02:33:02.971Z,60.91
2022-09-25T02:35:30.310Z,60.93
2022-09-25T02:37:57.591Z,60.75
2022-09-25T02:40:48.866Z,61.00
2022-09-25T02:43:50.350Z,61.09
2022-09-25T02:46:51.729Z,61.33
2022-09-25T02:49:55.048Z,61.47
2022-09-25T02:53:11.708Z,61.26
2022-09-25T02:55:48.849Z,61.59
2022-09-25T02:58:39.988Z,61.64
2022-09-25T03:01:10.480Z,61.20
2022-09-25T03:03:40.229Z,61.32
2022-09-25T03:06:09.028Z,61.46
2022-09-25T03:08:39.611Z,61.22
2022-09-25T03:11:18.309Z,61.48
2022-09-25T03:13:46.668Z,61.51
2022-09-25T03:16:13.481Z,61.01
2022-09-25T03:18:41.129Z,60.87
2022-09-25T03:21:08.230Z,61.15
2022-09-25T03:23:35.249Z,61.15
2022-09-25T03:26:02.248Z,61.68
2022-09-25T03:28:29.510Z,61.96
2022-09-25T03:31:10.848Z,61.78
2022-09-25T03:33:40.296Z,61.78
2022-09-25T03:36:11.789Z,61.77
2022-09-25T03:38:41.489Z,61.70
2022-09-25T03:41:10.691Z,61.61
2022-09-25T03:43:39.489Z,61.62
2022-09-25T03:46:11.645Z,61.82
2022-09-25T03:48:39.349Z,61.31
2022-09-25T03:51:07.490Z,61.32
2022-09-25T03:53:34.408Z,61.45
2022-09-25T03:56:03.910Z,61.61
2022-09-25T03:58:30.988Z,61.87
2022-09-25T04:00:58.520Z,62.08
2022-09-25T04:03:29.831Z,61.36
2022-09-25T04:05:59.151Z,61.49
2022-09-25T04:08:27.530Z,61.65
2022-09-25T04:11:01.893Z,61.93
2022-09-25T04:13:32.288Z,61.86
2022-09-25T04:16:01.406Z,62.37
2022-09-25T04:18:32.023Z,62.28
2022-09-25T04:21:04.765Z,62.42
2022-09-25T04:23:32.677Z,62.38
2022-09-25T04:25:59.636Z,62.63
2022-09-25T04:28:27.559Z,62.17
2022-09-25T04:30:54.775Z,61.95
2022-09-25T04:33:40.492Z,62.03
2022-09-25T04:36:07.952Z,62.40
2022-09-25T04:38:35.078Z,62.19
2022-09-25T04:41:02.836Z,62.61
2022-09-25T04:43:30.870Z,61.77
2022-09-25T04:46:09.194Z,62.09
2022-09-25T04:48:36.421Z,62.06
2022-09-25T04:51:04.572Z,62.69
2022-09-25T04:53:35.276Z,62.83
2022-09-25T04:56:04.653Z,62.74
2022-09-25T04:58:31.874Z,62.45
2022-09-25T05:01:06.683Z,62.79
2022-09-25T05:03:33.923Z,62.90
2022-09-25T05:06:00.934Z,63.30
2022-09-25T05:08:28.398Z,63.33
2022-09-25T05:10:55.481Z,63.22
2022-09-25T05:13:22.533Z,63.54
2022-09-25T05:15:49.622Z,63.85
2022-09-25T05:18:20.085Z,63.99
2022-09-25T05:20:47.517Z,63.78
2022-09-25T05:23:14.713Z,64.30
2022-09-25T05:25:41.832Z,64.36
2022-09-25T05:28:10.560Z,63.96
2022-09-25T05:30:39.160Z,64.41
2022-09-25T05:33:06.231Z,64.55
2022-09-25T05:35:34.109Z,64.26
2022-09-25T05:38:01.195Z,64.18
2022-09-25T05:40:28.676Z,64.52
2022-09-25T05:42:55.715Z,64.33
2022-09-25T05:45:26.230Z,64.86
2022-09-25T05:48:07.889Z,64.97
2022-09-25T05:50:35.631Z,64.52
2022-09-25T05:53:05.077Z,64.85
2022-09-25T05:55:32.256Z,64.58
2022-09-25T05:58:03.472Z,65.23
2022-09-25T06:00:34.730Z,65.20
2022-09-25T06:03:02.418Z,65.14
2022-09-25T06:05:30.259Z,66.01
2022-09-25T06:07:57.379Z,66.09
2022-09-25T06:10:26.283Z,65.96
2022-09-25T06:12:59.073Z,65.94
2022-09-25T06:15:30.118Z,66.20
2022-09-25T06:17:57.279Z,66.06
2022-09-25T06:20:25.311Z,66.21
2022-09-25T06:22:56.192Z,66.11
2022-09-25T06:25:26.196Z,66.22
2022-09-25T06:27:54.932Z,66.72
2022-09-25T06:30:23.551Z,66.52
2022-09-25T06:32:57.863Z,66.89
2022-09-25T06:35:24.970Z,66.95
2022-09-25T06:37:52.473Z,65.78
2022-09-25T06:40:19.649Z,67.17
2022-09-25T06:42:46.691Z,66.87
2022-09-25T06:45:13.850Z,67.08
2022-09-25T06:47:40.914Z,67.54
2022-09-25T06:50:08.570Z,67.12
2022-09-25T06:52:42.850Z,67.22
2022-09-25T06:55:09.950Z,67.88
2022-09-25T06:57:38.334Z,67.79
2022-09-25T07:00:06.418Z,68.21
2022-09-25T07:02:52.214Z,68.07
2022-09-25T07:05:19.391Z,67.85
2022-09-25T07:07:46.658Z,67.73
2022-09-25T07:10:13.733Z,67.52
2022-09-25T07:12:41.790Z,66.77
2022-09-25T07:15:09.278Z,66.64
2022-09-25T07:17:36.435Z,66.89
2022-09-25T07:20:04.038Z,66.85
2022-09-25T07:22:31.002Z,67.03
2022-09-25T07:24:58.049Z,67.16
2022-09-25T07:27:25.318Z,67.14
2022-09-25T07:29:52.731Z,67.26
2022-09-25T07:32:20.857Z,67.10
2022-09-25T07:34:50.431Z,67.34
2022-09-25T07:37:20.610Z,67.49
2022-09-25T07:39:47.637Z,67.90
2022-09-25T07:42:14.640Z,67.62
2022-09-25T07:44:44.845Z,67.74
2022-09-25T07:47:15.481Z,67.91
2022-09-25T07:49:42.411Z,68.20
2022-09-25T07:52:09.360Z,68.13
2022-09-25T07:54:36.791Z,68.18
2022-09-25T07:57:03.842Z,68.14
2022-09-25T07:59:30.743Z,67.70
2022-09-25T08:01:58.389Z,68.36
2022-09-25T08:04:25.362Z,68.77
2022-09-25T08:06:52.281Z,69.15
2022-09-25T08:09:19.271Z,69.53
2022-09-25T08:11:46.290Z,68.01
2022-09-25T08:14:14.685Z,69.07
2022-09-25T08:16:43.182Z,69.58
2022-09-25T08:19:13.120Z,69.03
2022-09-25T08:21:40.082Z,69.67
2022-09-25T08:24:07.234Z,68.27
2022-09-25T08:26:34.323Z,67.61
2022-09-25T08:29:01.441Z,67.73
2022-09-25T08:31:28.715Z,68.57
2022-09-25T08:33:55.742Z,68.18
2022-09-25T08:36:23.911Z,68.63
2022-09-25T08:38:53.214Z,69.60
2022-09-25T08:41:27.242Z,68.40
2022-09-25T08:44:19.933Z,69.23
2022-09-25T08:47:09.703Z,69.51
2022-09-25T08:49:45.881Z,69.81
2022-09-25T08:52:18.307Z,69.88
2022-09-25T08:54:45.975Z,70.27
2022-09-25T08:57:43.722Z,70.46
2022-09-25T09:00:20.890Z,70.62
2022-09-25T09:02:54.305Z,70.73
2022-09-25T09:05:30.513Z,70.63
2022-09-25T09:08:06.442Z,70.24
2022-09-25T09:10:45.162Z,69.51
2022-09-25T09:13:35.149Z,70.00
2022-09-25T09:16:02.244Z,70.04
2022-09-25T09:18:31.582Z,69.52
2022-09-25T09:21:22.821Z,69.82
2022-09-25T09:24:14.681Z,70.32
2022-09-25T09:26:53.693Z,70.02
2022-09-25T09:29:35.042Z,69.95
2022-09-25T09:32:20.363Z,70.40
2022-09-25T09:35:06.726Z,70.19
2022-09-25T09:37:37.345Z,70.20
2022-09-25T09:40:29.251Z,70.54
2022-09-25T09:43:05.104Z,70.74
2022-09-25T09:45:44.464Z,70.63
2022-09-25T09:48:39.445Z,70.19
2022-09-25T09:51:35.610Z,70.51
2022-09-25T09:54:14.117Z,70.85
2022-09-25T09:56:45.052Z,71.04
2022-09-25T09:59:23.447Z,71.02
2022-09-25T10:02:01.726Z,71.18
2022-09-25T10:04:38.321Z,70.57
2022-09-25T10:07:12.322Z,70.68
2022-09-25T10:09:39.343Z,71.07
2022-09-25T10:12:14.935Z,71.29
2022-09-25T10:14:46.026Z,71.51
2022-09-25T10:17:13.052Z,71.50
2022-09-25T10:19:44.483Z,70.83
2022-09-25T10:22:17.207Z,70.65
2022-09-25T10:24:55.309Z,70.25
2022-09-25T10:27:28.801Z,70.04
2022-09-25T10:30:09.831Z,69.17
2022-09-25T10:33:01.434Z,69.18
2022-09-25T10:35:42.723Z,68.99
2022-09-25T10:39:24.210Z,68.95
2022-09-25T10:41:47.913Z,68.79
2022-09-25T10:44:24.065Z,69.27
2022-09-25T10:47:09.902Z,69.01
2022-09-25T10:50:06.699Z,68.85
2022-09-25T10:52:53.935Z,69.02
2022-09-25T10:55:46.617Z,68.14
2022-09-25T10:58:20.353Z,67.85
2022-09-25T11:00:47.274Z,68.14
2022-09-25T11:13:37.121Z,68.30
2022-09-25T11:16:10.655Z,69.11
2022-09-25T11:18:43.512Z,69.55
2022-09-25T11:21:26.190Z,69.13
2022-09-25T11:23:55.967Z,69.22
2022-09-25T11:26:29.203Z,68.99
2022-09-25T11:29:15.238Z,68.18
2022-09-25T11:31:56.403Z,68.00
2022-09-25T11:34:36.765Z,67.76
2022-09-25T11:37:20.380Z,67.33
2022-09-25T11:40:14.024Z,67.29
2022-09-25T11:42:54.071Z,67.29
2022-09-25T11:45:30.713Z,67.45
2022-09-25T11:48:13.353Z,65.62
2022-09-25T11:50:53.309Z,65.43
2022-09-25T11:53:33.734Z,63.53
2022-09-25T11:56:19.352Z,62.51
2022-09-25T11:58:58.123Z,62.82
2022-09-25T12:01:45.929Z,61.84
2022-09-25T12:04:15.888Z,61.60
2022-09-25T12:07:03.002Z,61.33
2022-09-25T12:09:54.981Z,61.54
2022-09-25T12:12:42.921Z,61.65
2022-09-25T12:15:47.956Z,62.38
2022-09-25T12:18:34.404Z,62.69
2022-09-25T12:21:07.982Z,62.33
2022-09-25T12:23:43.337Z,62.77
2022-09-25T12:26:39.745Z,62.53
2022-09-25T12:29:27.140Z,62.39
2022-09-25T12:32:04.594Z,63.26
2022-09-25T12:34:52.815Z,63.78
2022-09-25T12:37:27.635Z,63.44
2022-09-25T12:40:00.139Z,62.82
2022-09-25T12:42:45.284Z,60.79
2022-09-25T12:45:45.977Z,60.19
2022-09-25T12:48:38.004Z,58.11
2022-09-25T12:51:51.725Z,58.03
2022-09-25T12:54:51.116Z,58.55
2022-09-25T12:57:33.114Z,57.54
2022-09-25T13:00:15.216Z,58.00
2022-09-25T13:02:51.590Z,57.86
2022-09-25T13:05:34.796Z,58.70
2022-09-25T13:08:13.060Z,58.90
2022-09-25T13:10:49.209Z,59.22
2022-09-25T13:13:21.446Z,58.91
2022-09-25T13:15:57.605Z,59.18
2022-09-25T13:18:27.226Z,58.10
2022-09-25T13:21:20.043Z,58.70
2022-09-25T13:23:51.400Z,58.94
2022-09-25T13:26:25.320Z,59.47
2022-09-25T13:29:04.661Z,58.91
2022-09-25T13:31:34.522Z,58.79
2022-09-25T13:34:01.402Z,58.46
2022-09-25T13:36:39.682Z,58.46
2022-09-25T13:39:59.686Z,58.55
2022-09-25T13:42:26.802Z,59.34
2022-09-25T13:45:08.682Z,59.19
2022-09-25T13:47:38.721Z,58.80
2022-09-25T13:50:19.607Z,58.91
2022-09-25T13:53:09.290Z,59.71
2022-09-25T13:55:44.140Z,59.79
2022-09-25T13:58:24.361Z,59.66
2022-09-25T14:00:57.858Z,59.90
2022-09-25T14:03:44.796Z,59.03
2022-09-25T14:06:23.760Z,59.19
2022-09-25T14:08:53.572Z,59.44
2022-09-25T14:11:27.124Z,59.51
2022-09-25T14:13:56.975Z,59.22
2022-09-25T14:16:27.875Z,59.72
2022-09-25T14:18:58.488Z,59.56
2022-09-25T14:21:29.124Z,59.80
2022-09-25T14:23:58.266Z,60.23
2022-09-25T14:26:27.801Z,60.05
2022-09-25T14:28:57.492Z,59.79
2022-09-25T14:31:33.360Z,60.12
2022-09-25T14:34:22.341Z,59.93
2022-09-25T14:36:59.240Z,59.98
2022-09-25T14:39:48.311Z,59.30
2022-09-25T14:42:53.230Z,57.78
2022-09-25T14:45:44.542Z,56.37
2022-09-25T14:48:20.522Z,56.08
2022-09-25T14:50:51.142Z,56.05
2022-09-25T14:53:30.111Z,56.45
2022-09-25T14:55:58.991Z,56.94
2022-09-25T14:58:30.462Z,56.75
2022-09-25T15:01:02.320Z,57.19
2022-09-25T15:03:32.102Z,57.76
2022-09-25T15:06:04.055Z,57.71
2022-09-25T15:08:31.044Z,58.13
2022-09-25T15:11:03.984Z,58.47
2022-09-25T15:13:33.872Z,58.29
2022-09-25T15:16:20.775Z,58.87
2022-09-25T15:18:54.416Z,58.63
2022-09-25T15:21:31.133Z,59.84
2022-09-25T15:24:10.013Z,60.19
2022-09-25T15:26:44.442Z,60.63
2022-09-25T15:29:18.563Z,60.82
2022-09-25T15:31:51.074Z,60.89
2022-09-25T15:34:30.236Z,61.79
2022-09-25T15:37:29.638Z,60.81
2022-09-25T15:40:00.944Z,62.67
2022-09-25T15:42:28.021Z,61.94
2022-09-25T15:44:57.592Z,62.22
2022-09-25T15:47:36.885Z,62.75
2022-09-25T15:50:11.739Z,64.03
2022-09-25T15:52:42.276Z,63.46
2022-09-25T15:55:15.785Z,64.88
2022-09-25T15:57:43.550Z,64.75
2022-09-25T16:00:42.251Z,66.67
2022-09-25T16:03:43.974Z,66.33
2022-09-25T16:06:17.536Z,65.62
2022-09-25T16:08:45.375Z,66.06
2022-09-25T16:11:16.925Z,66.62
2022-09-25T16:13:49.480Z,67.06
2022-09-25T16:16:21.344Z,67.21
2022-09-25T16:18:49.483Z,68.03
2022-09-25T16:21:27.801Z,67.54
2022-09-25T16:24:07.618Z,68.61
2022-09-25T16:26:40.466Z,68.44
2022-09-25T16:29:13.532Z,68.35
2022-09-25T16:31:43.854Z,69.49
2022-09-25T16:34:31.787Z,68.25
2022-09-25T16:37:03.360Z,69.40
2022-09-25T16:39:31.800Z,70.94
2022-09-25T16:42:00.283Z,69.01
2022-09-25T16:44:28.361Z,70.26
2022-09-25T16:46:55.300Z,69.01
2022-09-25T16:49:22.926Z,69.06
2022-09-25T16:51:52.555Z,70.08
2022-09-25T16:54:21.687Z,69.53
2022-09-25T16:56:49.260Z,69.70
2022-09-25T16:59:25.120Z,69.95
2022-09-25T17:01:58.141Z,69.78
2022-09-25T17:04:28.080Z,70.03
2022-09-25T17:06:58.391Z,70.40
2022-09-25T17:09:28.540Z,70.47
2022-09-25T17:12:08.790Z,70.70
2022-09-25T17:14:36.521Z,70.29
2022-09-25T17:17:03.591Z,70.25
2022-09-25T17:19:31.918Z,69.88
2022-09-25T17:21:59.620Z,69.47
2022-09-25T17:24:27.740Z,69.02
2022-09-25T17:26:54.930Z,69.33
2022-09-25T17:29:22.817Z,68.81
2022-09-25T17:31:49.923Z,68.71
2022-09-25T17:34:25.463Z,69.59
2022-09-25T17:36:52.621Z,70.02
2022-09-25T17:39:19.640Z,69.82
2022-09-25T17:41:47.318Z,69.85
2022-09-25T17:44:21.209Z,70.28
2022-09-25T17:46:49.219Z,70.46
2022-09-25T17:49:16.655Z,69.74
2022-09-25T17:51:43.963Z,70.04
2022-09-25T17:54:13.062Z,69.88
2022-09-25T17:56:55.730Z,70.14
2022-09-25T17:59:24.388Z,70.43
2022-09-25T18:01:51.453Z,70.64
2022-09-25T18:04:20.712Z,70.59
2022-09-25T18:06:48.241Z,71.05
2022-09-25T18:09:15.280Z,71.35
2022-09-25T18:11:46.812Z,71.41
2022-09-25T18:14:16.631Z,71.64
2022-09-25T18:16:44.953Z,72.05
2022-09-25T18:19:36.726Z,71.82
2022-09-25T18:22:22.075Z,71.67
2022-09-25T18:24:59.541Z,72.15
2022-09-25T18:27:30.823Z,72.22
2022-09-25T18:29:58.443Z,72.39
2022-09-25T18:32:26.211Z,71.98
2022-09-25T18:34:53.363Z,71.99
2022-09-25T18:37:20.412Z,72.07
2022-09-25T18:39:48.471Z,71.98
2022-09-25T18:42:16.032Z,71.85
2022-09-25T18:44:43.460Z,71.75
2022-09-25T18:47:13.191Z,71.94
2022-09-25T18:49:41.185Z,71.90
2022-09-25T18:52:14.381Z,71.73
2022-09-25T18:54:42.574Z,70.83
2022-09-25T18:57:11.860Z,71.54
2022-09-25T18:59:41.338Z,71.43
2022-09-25T19:02:23.607Z,71.15
2022-09-25T19:04:55.229Z,71.12
2022-09-25T19:07:24.421Z,71.26
2022-09-25T19:09:52.892Z,71.76
2022-09-25T19:12:21.079Z,70.94
2022-09-25T19:14:48.798Z,70.98
2022-09-25T19:17:17.091Z,71.30
2022-09-25T19:19:44.542Z,71.64
2022-09-25T19:22:19.990Z,71.67
2022-09-25T19:24:49.034Z,71.50
2022-09-25T19:27:17.351Z,72.19
2022-09-25T19:29:47.681Z,72.13
2022-09-25T19:32:17.652Z,72.28
2022-09-25T19:34:45.243Z,72.54
2022-09-25T19:37:12.781Z,72.49
2022-09-25T19:39:59.224Z,72.17
2022-09-25T19:42:28.421Z,72.42
2022-09-25T19:44:56.782Z,72.42
2022-09-25T19:47:24.393Z,72.44
2022-09-25T19:49:51.409Z,71.88
2022-09-25T19:52:20.793Z,71.88
2022-09-25T19:54:48.321Z,71.81
2022-09-25T20:01:18.634Z,71.35
2022-09-25T20:03:47.402Z,71.75
2022-09-25T20:06:16.242Z,71.34
2022-09-25T20:08:44.312Z,71.28
2022-09-25T20:11:20.882Z,71.49
2022-09-25T20:13:49.282Z,71.73
2022-09-25T20:16:19.106Z,71.55
2022-09-25T20:18:51.683Z,71.84
2022-09-25T20:21:21.470Z,71.62
2022-09-25T20:23:53.346Z,71.57
2022-09-25T20:26:21.062Z,71.73
2022-09-25T20:28:53.120Z,72.01
2022-09-25T20:31:20.805Z,71.85
2022-09-25T20:33:47.931Z,71.75
2022-09-25T20:36:16.601Z,72.06
2022-09-25T20:38:45.591Z,71.87
2022-09-25T20:41:13.779Z,71.90
2022-09-25T20:43:41.261Z,71.78
2022-09-25T20:46:11.187Z,71.99
2022-09-25T20:48:47.327Z,71.85
2022-09-25T20:51:17.129Z,71.52
2022-09-25T20:53:48.883Z,71.98
2022-09-25T20:56:16.233Z,71.69
2022-09-25T20:58:45.316Z,71.61
2022-09-25T21:01:17.534Z,71.13
2022-09-25T21:03:46.648Z,71.17
2022-09-25T21:06:25.000Z,71.38
2022-09-25T21:08:54.391Z,71.42
2022-09-25T21:11:22.575Z,71.23
2022-09-25T21:13:51.502Z,71.35
2022-09-25T21:16:20.046Z,71.31
2022-09-25T21:18:56.149Z,71.88
2022-09-25T21:21:24.811Z,71.93
2022-09-25T21:23:54.420Z,72.06
2022-09-25T21:26:23.883Z,71.72
2022-09-25T21:28:52.615Z,72.02
2022-09-25T21:31:25.129Z,71.94
2022-09-25T21:33:53.901Z,72.02
2022-09-25T21:36:22.123Z,71.61
2022-09-25T21:38:49.621Z,71.73
2022-09-25T21:41:19.102Z,71.62
2022-09-25T21:43:46.853Z,71.58
2022-09-25T21:46:16.198Z,71.69
2022-09-25T21:48:49.493Z,71.52
2022-09-25T21:51:17.542Z,71.55
2022-09-25T21:53:44.741Z,71.84
2022-09-25T21:56:14.881Z,71.51
2022-09-25T21:58:41.813Z,71.81
2022-09-25T22:01:20.180Z,71.52
2022-09-25T22:03:50.001Z,71.67
2022-09-25T22:06:23.031Z,71.49
2022-09-25T22:08:58.802Z,71.84
2022-09-25T22:11:26.370Z,71.98
2022-09-25T22:13:53.612Z,71.70
2022-09-25T22:16:26.228Z,71.83
2022-09-25T22:18:59.920Z,71.78
2022-09-25T22:21:29.900Z,71.39
2022-09-25T22:23:57.571Z,71.69
2022-09-25T22:26:25.340Z,72.00
2022-09-25T22:28:52.802Z,71.62
2022-09-25T22:31:23.588Z,71.77
2022-09-25T22:33:55.523Z,71.94
2022-09-25T22:36:23.043Z,72.13
2022-09-25T22:38:49.963Z,72.03
2022-09-25T22:41:17.111Z,71.95
2022-09-25T22:43:44.101Z,72.35
2022-09-25T22:46:12.741Z,72.44
2022-09-25T22:48:39.958Z,72.49
2022-09-25T22:51:18.643Z,72.10
2022-09-25T22:53:46.781Z,72.36
2022-09-25T22:56:23.248Z,71.98
2022-09-25T22:58:54.402Z,71.89
2022-09-25T23:01:39.429Z,71.85
2022-09-25T23:04:12.122Z,71.63
2022-09-25T23:06:39.276Z,71.45
2022-09-25T23:09:09.183Z,71.49
2022-09-25T23:11:36.331Z,71.31
2022-09-25T23:14:07.129Z,71.61
2022-09-25T23:16:34.977Z,71.33
2022-09-25T23:19:02.561Z,70.98
2022-09-25T23:21:30.959Z,71.20
2022-09-25T23:24:03.601Z,71.34
2022-09-25T23:26:31.100Z,71.18
2022-09-25T23:28:59.380Z,71.18
2022-09-25T23:31:26.356Z,71.33
2022-09-25T23:33:53.351Z,71.51
2022-09-25T23:36:23.361Z,71.74
2022-09-25T23:38:52.422Z,71.33
2022-09-25T23:41:25.270Z,71.43
2022-09-25T23:43:53.961Z,71.21
2022-09-25T23:46:23.233Z,71.30
2022-09-25T23:48:51.201Z,71.50
2022-09-25T23:51:20.400Z,71.27
2022-09-25T23:53:48.781Z,71.17
2022-09-25T23:56:19.761Z,70.49
2022-09-25T23:58:47.960Z,70.36
